Time;durP1;ratioP1;P1;durP2;ratioP2;P2;SDS_P1;SDS_P2;PMS_P1;PMS_P2;Temp;Humidity;BMP_temperature;BMP_pressure;BME280_temperature;BME280_humidity;BME280_pressure;Samples;Min_cycle;Max_cycle;Signal;HPM_P1;HPM_P2
2022/12/23 00:01:33;;;;;;;;;;;9.90;99.90;;;;;;5011092;28;19914;-65
2022/12/23 00:03:58;;;;;;;;;;;9.90;99.90;;;;;;5008070;28;20388;-65
2022/12/23 00:06:24;;;;;;;;;;;9.80;99.90;;;;;;5010273;28;19918;-65
2022/12/23 00:08:56;;;;;;;;;;;9.90;99.90;;;;;;5011011;28;19917;-65
2022/12/23 00:11:22;;;;;;;;;;;9.90;99.90;;;;;;5009660;28;20321;-65
2022/12/23 00:16:34;;;;;;;;;;;9.90;99.90;;;;;;5009434;28;19924;-66
2022/12/23 00:18:59;;;;;;;;;;;9.80;99.90;;;;;;5010554;28;20045;-66
2022/12/23 00:21:25;;;;;;;;;;;9.80;99.90;;;;;;4996730;28;20328;-66
2022/12/23 00:23:51;;;;;;;;;;;9.90;99.90;;;;;;5010834;28;19909;-66
2022/12/23 00:26:18;;;;;;;;;;;9.90;99.90;;;;;;5008865;28;19987;-66
2022/12/23 00:28:44;;;;;;;;;;;9.90;99.90;;;;;;5010396;28;19941;-65
2022/12/23 00:31:10;;;;;;;;;;;10.00;99.90;;;;;;4993964;28;19913;-66
2022/12/23 00:33:37;;;;;;;;;;;10.00;99.90;;;;;;4999219;28;19944;-65
2022/12/23 00:36:29;;;;;;;;;;;9.90;99.90;;;;;;5010057;28;20385;-66
2022/12/23 00:44:23;;;;;;;;;;;9.90;99.90;;;;;;5011372;28;19920;-65
2022/12/23 00:46:49;;;;;;;;;;;10.00;99.90;;;;;;5013358;28;19917;-65
2022/12/23 00:52:00;;;;;;;;;;;9.80;99.90;;;;;;5001837;28;20396;-65
2022/12/23 00:54:26;;;;;;;;;;;9.70;99.90;;;;;;4995343;28;19921;-65
2022/12/23 00:56:51;;;;;;;;;;;9.70;99.90;;;;;;4992777;28;19913;-65
2022/12/23 00:59:17;;;;;;;;;;;9.70;99.90;;;;;;4991955;28;20020;-65
2022/12/23 01:07:11;;;;;;;;;;;9.50;99.90;;;;;;4993420;28;20120;-65
2022/12/23 01:09:36;;;;;;;;;;;9.60;99.90;;;;;;4996225;28;20020;-64
2022/12/23 01:12:02;;;;;;;;;;;9.50;99.90;;;;;;4996285;28;19913;-65
2022/12/23 01:14:28;;;;;;;;;;;9.50;99.90;;;;;;4991342;28;20028;-66
2022/12/23 01:16:53;;;;;;;;;;;9.60;99.90;;;;;;4992732;28;21293;-66
2022/12/23 01:19:19;;;;;;;;;;;9.60;99.90;;;;;;4995582;28;19918;-65
2022/12/23 01:21:45;;;;;;;;;;;9.50;99.90;;;;;;4995398;28;20051;-66
2022/12/23 01:24:10;;;;;;;;;;;9.50;99.90;;;;;;4992907;28;20018;-65
2022/12/23 01:26:36;;;;;;;;;;;9.60;99.90;;;;;;4994125;28;19965;-66
2022/12/23 01:29:01;;;;;;;;;;;9.60;99.90;;;;;;5011942;28;20000;-66
2022/12/23 01:31:27;;;;;;;;;;;9.60;99.90;;;;;;5007467;28;20288;-66
2022/12/23 01:33:53;;;;;;;;;;;9.60;99.90;;;;;;5005804;28;19925;-64
2022/12/23 01:36:19;;;;;;;;;;;9.60;99.90;;;;;;4991942;28;19914;-64
2022/12/23 01:38:45;;;;;;;;;;;9.60;99.90;;;;;;4993613;28;19917;-65
2022/12/23 01:42:42;;;;;;;;;;;9.60;99.90;;;;;;4993621;28;20385;-65
2022/12/23 01:44:23;;;;;;;;;;;9.60;99.90;;;;;;4990596;28;19963;-66
2022/12/23 01:46:49;;;;;;;;;;;9.70;99.90;;;;;;4994647;28;20716;-66
2022/12/23 01:49:14;;;;;;;;;;;9.70;99.90;;;;;;4992727;28;19918;-65
2022/12/23 01:51:40;;;;;;;;;;;9.70;99.90;;;;;;4995179;28;20412;-65
2022/12/23 01:54:06;;;;;;;;;;;9.80;99.90;;;;;;4995017;28;19913;-65
2022/12/23 01:56:36;;;;;;;;;;;9.80;99.90;;;;;;4995058;28;19914;-65
2022/12/23 01:59:07;;;;;;;;;;;9.80;99.90;;;;;;4996839;28;19918;-65
2022/12/23 02:04:18;;;;;;;;;;;9.80;99.90;;;;;;5012414;28;19942;-66
2022/12/23 02:09:34;;;;;;;;;;;9.70;99.90;;;;;;5012501;28;20827;-65
2022/12/23 02:12:15;;;;;;;;;;;9.70;99.90;;;;;;5010837;28;20391;-65
2022/12/23 02:17:55;;;;;;;;;;;9.70;99.90;;;;;;5001989;28;20015;-66
2022/12/23 02:20:39;;;;;;;;;;;9.60;99.90;;;;;;5017434;28;19940;-65
2022/12/23 02:23:04;;;;;;;;;;;9.70;99.90;;;;;;5012872;28;19989;-65
2022/12/23 02:25:45;;;;;;;;;;;9.70;99.90;;;;;;4995152;28;20334;-65
2022/12/23 02:28:26;;;;;;;;;;;9.70;99.90;;;;;;5009823;28;19960;-65
2022/12/23 02:30:58;;;;;;;;;;;9.70;99.90;;;;;;5011382;28;19931;-65
2022/12/23 02:33:29;;;;;;;;;;;9.70;99.90;;;;;;5013412;28;19959;-65
2022/12/23 02:36:03;;;;;;;;;;;9.70;99.90;;;;;;5009149;28;19913;-65
2022/12/23 02:38:43;;;;;;;;;;;9.80;99.90;;;;;;5015556;28;19913;-64
2022/12/23 02:41:14;;;;;;;;;;;9.80;99.90;;;;;;5009436;28;19997;-65
2022/12/23 02:43:46;;;;;;;;;;;9.80;99.90;;;;;;5000666;28;20442;-65
2022/12/23 02:46:30;;;;;;;;;;;9.90;99.90;;;;;;5001552;28;19925;-64
2022/12/23 02:48:59;;;;;;;;;;;9.90;99.90;;;;;;5011699;28;20360;-65
2022/12/23 02:51:26;;;;;;;;;;;9.90;99.90;;;;;;5011949;28;19949;-65
2022/12/23 02:53:54;;;;;;;;;;;9.80;99.90;;;;;;5005076;28;19913;-65
2022/12/23 02:56:21;;;;;;;;;;;9.80;99.90;;;;;;5011750;28;20339;-65
2022/12/23 02:58:53;;;;;;;;;;;9.90;99.90;;;;;;5012297;28;20004;-65
2022/12/23 03:01:19;;;;;;;;;;;9.90;99.90;;;;;;5016082;28;19913;-65
2022/12/23 03:03:46;;;;;;;;;;;9.90;99.90;;;;;;5012287;28;19925;-65
2022/12/23 03:06:18;;;;;;;;;;;9.90;99.90;;;;;;5010781;28;19917;-66
2022/12/23 03:08:44;;;;;;;;;;;9.90;99.90;;;;;;5010426;28;19921;-65
2022/12/23 03:11:12;;;;;;;;;;;9.90;99.90;;;;;;5011101;28;19918;-65
2022/12/23 03:13:40;;;;;;;;;;;9.90;99.90;;;;;;5009137;28;19913;-66
2022/12/23 03:16:19;;;;;;;;;;;9.90;99.90;;;;;;5008335;28;20016;-65
2022/12/23 03:19:03;;;;;;;;;;;9.90;99.90;;;;;;5010048;28;19993;-65
2022/12/23 03:21:43;;;;;;;;;;;9.90;99.90;;;;;;5007918;28;20387;-64
2022/12/23 03:24:11;;;;;;;;;;;9.90;99.90;;;;;;5000510;28;19945;-65
2022/12/23 03:26:52;;;;;;;;;;;9.80;99.90;;;;;;5006487;28;19922;-65
2022/12/23 03:29:26;;;;;;;;;;;9.90;99.90;;;;;;5002593;28;19914;-65
2022/12/23 03:31:53;;;;;;;;;;;9.80;99.90;;;;;;5006484;28;20526;-64
2022/12/23 03:34:21;;;;;;;;;;;9.90;99.90;;;;;;5009465;28;20004;-64
2022/12/23 03:36:49;;;;;;;;;;;9.90;99.90;;;;;;5005396;28;19914;-64
2022/12/23 03:39:22;;;;;;;;;;;9.90;99.90;;;;;;4981322;28;19928;-64
2022/12/23 03:42:00;;;;;;;;;;;9.90;99.90;;;;;;5000686;28;19974;-65
2022/12/23 03:44:30;;;;;;;;;;;9.90;99.90;;;;;;5006847;28;20218;-65
2022/12/23 03:47:16;;;;;;;;;;;10.00;99.90;;;;;;5013257;28;20399;-64
2022/12/23 03:49:44;;;;;;;;;;;10.00;99.90;;;;;;5007026;28;19917;-64
2022/12/23 03:52:12;;;;;;;;;;;10.10;99.90;;;;;;5004112;28;19917;-65
2022/12/23 03:54:58;;;;;;;;;;;10.10;99.90;;;;;;4995913;28;19921;-66
2022/12/23 03:57:33;;;;;;;;;;;10.00;99.90;;;;;;4995757;28;19947;-65
2022/12/23 03:59:59;;;;;;;;;;;10.00;99.90;;;;;;5015765;28;20308;-65
2022/12/23 04:02:27;;;;;;;;;;;10.00;99.90;;;;;;5007972;28;19924;-65
2022/12/23 04:04:56;;;;;;;;;;;9.90;99.90;;;;;;5007546;28;19913;-65
2022/12/23 04:07:30;;;;;;;;;;;10.00;99.90;;;;;;5010525;28;19976;-65
2022/12/23 04:09:56;;;;;;;;;;;10.00;99.90;;;;;;4996534;28;19914;-66
2022/12/23 04:12:23;;;;;;;;;;;10.00;99.90;;;;;;5009144;28;19914;-65
2022/12/23 04:14:49;;;;;;;;;;;10.00;99.90;;;;;;4998931;28;19909;-65
2022/12/23 04:17:16;;;;;;;;;;;10.00;99.90;;;;;;5005358;28;19924;-66
2022/12/23 04:19:44;;;;;;;;;;;10.00;99.90;;;;;;4998976;28;19917;-66
2022/12/23 04:22:10;;;;;;;;;;;10.20;99.90;;;;;;4995651;28;19980;-64
2022/12/23 04:24:36;;;;;;;;;;;10.20;99.90;;;;;;5007198;28;19918;-66
2022/12/23 04:27:01;;;;;;;;;;;10.10;99.90;;;;;;5011462;28;19933;-65
2022/12/23 04:29:27;;;;;;;;;;;10.10;99.90;;;;;;5008544;28;20012;-65
2022/12/23 04:31:52;;;;;;;;;;;10.00;99.90;;;;;;5005904;28;19913;-64
2022/12/23 04:34:18;;;;;;;;;;;10.00;99.90;;;;;;4996884;28;19929;-65
2022/12/23 04:36:43;;;;;;;;;;;10.00;99.90;;;;;;4996949;28;20296;-64
2022/12/23 04:39:09;;;;;;;;;;;10.00;99.90;;;;;;4993631;28;19918;-64
2022/12/23 04:41:34;;;;;;;;;;;10.10;99.90;;;;;;4994382;28;19971;-65
2022/12/23 04:44:00;;;;;;;;;;;10.10;99.90;;;;;;4996032;28;19920;-65
2022/12/23 04:46:25;;;;;;;;;;;10.00;99.90;;;;;;4995262;28;19925;-66
2022/12/23 04:48:51;;;;;;;;;;;10.10;99.90;;;;;;4998099;28;19918;-65
2022/12/23 04:51:17;;;;;;;;;;;10.10;99.90;;;;;;5001321;28;20037;-65
2022/12/23 04:53:42;;;;;;;;;;;10.10;99.90;;;;;;4995232;28;19913;-65
2022/12/23 04:56:08;;;;;;;;;;;10.20;99.90;;;;;;4993402;28;20384;-66
2022/12/23 04:58:33;;;;;;;;;;;10.20;99.90;;;;;;4997071;28;19922;-66
2022/12/23 05:01:00;;;;;;;;;;;10.20;99.90;;;;;;4993465;28;19921;-65
2022/12/23 05:03:25;;;;;;;;;;;10.30;99.90;;;;;;4995931;28;19992;-65
2022/12/23 05:05:51;;;;;;;;;;;10.20;99.90;;;;;;4998273;28;19921;-66
2022/12/23 05:08:17;;;;;;;;;;;10.20;99.90;;;;;;4997677;28;19922;-66
2022/12/23 05:10:43;;;;;;;;;;;10.20;99.90;;;;;;4996015;28;19913;-66
2022/12/23 05:13:09;;;;;;;;;;;10.30;99.90;;;;;;4994710;28;20289;-66
2022/12/23 05:15:34;;;;;;;;;;;10.30;99.90;;;;;;5006176;28;19914;-66
2022/12/23 05:18:00;;;;;;;;;;;10.30;99.90;;;;;;5009913;28;19996;-66
2022/12/23 05:20:25;;;;;;;;;;;10.40;99.90;;;;;;5014251;28;20360;-65
2022/12/23 05:22:51;;;;;;;;;;;10.30;99.90;;;;;;5004253;28;20401;-66
2022/12/23 05:25:18;;;;;;;;;;;10.40;99.90;;;;;;5007481;28;20464;-66
2022/12/23 05:27:44;;;;;;;;;;;10.40;99.90;;;;;;5009454;28;19914;-66
2022/12/23 05:30:10;;;;;;;;;;;10.40;99.90;;;;;;5010312;28;19913;-66
2022/12/23 05:32:35;;;;;;;;;;;10.40;99.90;;;;;;5000945;28;19917;-65
2022/12/23 05:35:01;;;;;;;;;;;10.30;99.90;;;;;;4997579;28;20400;-65
2022/12/23 05:37:26;;;;;;;;;;;10.40;99.90;;;;;;4998996;28;19961;-67
2022/12/23 05:39:52;;;;;;;;;;;10.30;99.90;;;;;;5001043;28;19929;-65
2022/12/23 05:42:18;;;;;;;;;;;10.30;99.90;;;;;;4997378;28;19977;-66
2022/12/23 05:44:44;;;;;;;;;;;10.30;99.90;;;;;;4995460;28;19924;-65
2022/12/23 05:47:10;;;;;;;;;;;10.30;99.90;;;;;;4998505;28;19921;-66
2022/12/23 05:49:35;;;;;;;;;;;10.30;99.90;;;;;;4998536;28;19913;-65
2022/12/23 05:52:01;;;;;;;;;;;10.30;99.90;;;;;;5000013;28;20448;-64
2022/12/23 05:54:26;;;;;;;;;;;10.30;99.90;;;;;;4997393;28;20036;-65
2022/12/23 05:56:52;;;;;;;;;;;10.30;99.90;;;;;;4999930;28;20293;-65
2022/12/23 05:59:17;;;;;;;;;;;10.20;99.90;;;;;;5013724;28;19913;-65
2022/12/23 06:01:43;;;;;;;;;;;10.20;99.90;;;;;;5013090;28;19925;-64
2022/12/23 06:04:08;;;;;;;;;;;10.30;99.90;;;;;;5018365;28;19922;-66
2022/12/23 06:06:34;;;;;;;;;;;10.30;99.90;;;;;;5013219;28;20415;-66
2022/12/23 06:08:59;;;;;;;;;;;10.30;99.90;;;;;;5017769;28;20000;-65
2022/12/23 06:11:25;;;;;;;;;;;10.20;99.90;;;;;;5007669;28;19918;-65
2022/12/23 06:13:51;;;;;;;;;;;10.30;99.90;;;;;;5007665;28;20250;-66
2022/12/23 06:16:17;;;;;;;;;;;10.20;99.90;;;;;;5015411;28;19913;-66
2022/12/23 06:18:43;;;;;;;;;;;10.20;99.90;;;;;;5014165;28;19921;-65
2022/12/23 06:21:08;;;;;;;;;;;10.30;99.90;;;;;;5019193;28;19920;-65
2022/12/23 06:23:34;;;;;;;;;;;10.30;99.90;;;;;;5003017;28;19917;-66
2022/12/23 06:26:00;;;;;;;;;;;10.20;99.90;;;;;;5017780;28;20289;-65
2022/12/23 06:28:25;;;;;;;;;;;10.30;99.90;;;;;;5007745;28;20308;-66
2022/12/23 06:30:52;;;;;;;;;;;10.30;99.90;;;;;;5008264;28;19921;-66
2022/12/23 06:33:18;;;;;;;;;;;10.30;99.90;;;;;;5015605;28;19920;-66
2022/12/23 06:35:43;;;;;;;;;;;10.30;99.90;;;;;;5006330;28;20054;-66
2022/12/23 06:38:09;;;;;;;;;;;10.30;99.90;;;;;;5006632;28;19917;-66
2022/12/23 06:40:34;;;;;;;;;;;10.30;99.90;;;;;;5002991;28;20513;-66
2022/12/23 06:43:00;;;;;;;;;;;10.30;99.90;;;;;;4996798;28;19948;-65
2022/12/23 06:45:25;;;;;;;;;;;10.30;99.90;;;;;;5000826;28;19918;-66
2022/12/23 06:47:51;;;;;;;;;;;10.30;99.90;;;;;;5013847;28;19928;-64
2022/12/23 06:50:17;;;;;;;;;;;10.40;99.90;;;;;;5012503;28;19914;-65
2022/12/23 06:52:42;;;;;;;;;;;10.50;99.90;;;;;;5008077;28;19989;-65
2022/12/23 06:55:08;;;;;;;;;;;10.50;99.90;;;;;;5006293;28;19920;-68
2022/12/23 06:57:33;;;;;;;;;;;10.50;99.90;;;;;;5011084;28;19999;-66
2022/12/23 06:59:59;;;;;;;;;;;10.50;99.90;;;;;;5024271;28;19920;-68
2022/12/23 07:02:25;;;;;;;;;;;10.50;99.90;;;;;;5020136;28;19961;-65
2022/12/23 07:04:50;;;;;;;;;;;10.40;99.90;;;;;;4999958;28;19922;-65
2022/12/23 07:07:16;;;;;;;;;;;10.40;99.90;;;;;;5011426;28;19918;-67
2022/12/23 07:09:41;;;;;;;;;;;10.50;99.90;;;;;;5012478;28;20289;-66
2022/12/23 07:12:07;;;;;;;;;;;10.70;99.90;;;;;;5009094;28;19917;-65
2022/12/23 07:14:32;;;;;;;;;;;10.60;99.90;;;;;;5017857;28;19944;-66
2022/12/23 07:16:58;;;;;;;;;;;10.60;99.90;;;;;;5013814;28;19925;-66
2022/12/23 07:19:24;;;;;;;;;;;10.50;99.90;;;;;;5010502;28;19928;-66
2022/12/23 07:21:49;;;;;;;;;;;10.70;99.90;;;;;;5019350;28;19913;-65
2022/12/23 07:24:15;;;;;;;;;;;10.70;99.90;;;;;;5011553;28;20389;-65
2022/12/23 07:26:41;;;;;;;;;;;10.60;99.90;;;;;;5016757;28;20000;-65
2022/12/23 07:29:06;;;;;;;;;;;10.50;99.90;;;;;;5012424;28;19956;-67
2022/12/23 07:31:32;;;;;;;;;;;10.70;99.90;;;;;;5007182;28;19921;-65
2022/12/23 07:33:58;;;;;;;;;;;10.90;99.90;;;;;;5007045;28;20266;-65
2022/12/23 07:36:23;;;;;;;;;;;10.90;99.90;;;;;;5009349;28;20438;-65
2022/12/23 07:38:50;;;;;;;;;;;10.80;99.90;;;;;;5005653;28;19917;-65
2022/12/23 07:41:16;;;;;;;;;;;10.80;99.90;;;;;;5008622;28;19927;-66
2022/12/23 07:43:41;;;;;;;;;;;10.70;99.90;;;;;;5012322;28;20304;-66
2022/12/23 07:46:08;;;;;;;;;;;10.60;99.90;;;;;;5011668;28;19917;-66
2022/12/23 07:48:33;;;;;;;;;;;10.60;99.90;;;;;;5000379;28;19945;-66
2022/12/23 07:51:00;;;;;;;;;;;10.60;99.90;;;;;;5012429;28;19963;-66
2022/12/23 07:53:26;;;;;;;;;;;10.60;99.90;;;;;;4998842;28;19964;-66
2022/12/23 07:55:52;;;;;;;;;;;10.70;99.90;;;;;;5010577;28;20285;-65
2022/12/23 07:58:17;;;;;;;;;;;10.60;99.90;;;;;;5011184;28;19925;-65
2022/12/23 08:00:43;;;;;;;;;;;10.70;99.90;;;;;;5010306;28;19921;-65
2022/12/23 08:03:10;;;;;;;;;;;10.60;99.90;;;;;;5011079;28;19961;-65
2022/12/23 08:05:36;;;;;;;;;;;10.60;99.90;;;;;;5019503;28;19918;-64
2022/12/23 08:08:02;;;;;;;;;;;10.60;99.90;;;;;;5007967;28;19921;-65
2022/12/23 08:10:27;;;;;;;;;;;10.60;99.90;;;;;;5000800;28;19910;-66
2022/12/23 08:12:53;;;;;;;;;;;10.60;99.90;;;;;;5008610;28;20119;-66
2022/12/23 08:15:19;;;;;;;;;;;10.60;99.90;;;;;;5010842;28;19996;-66
2022/12/23 08:17:44;;;;;;;;;;;10.60;99.90;;;;;;5009696;28;20360;-64
2022/12/23 08:20:10;;;;;;;;;;;10.70;99.90;;;;;;5009392;28;19918;-65
2022/12/23 08:22:36;;;;;;;;;;;10.70;99.90;;;;;;5015675;28;20423;-65
2022/12/23 08:25:02;;;;;;;;;;;10.60;99.90;;;;;;5027582;28;20398;-66
2022/12/23 08:27:27;;;;;;;;;;;10.70;99.90;;;;;;4994482;28;19963;-65
2022/12/23 08:29:54;;;;;;;;;;;10.60;99.90;;;;;;5009478;28;19984;-66
2022/12/23 08:32:19;;;;;;;;;;;10.60;99.90;;;;;;4983867;28;19926;-66
2022/12/23 08:34:45;;;;;;;;;;;10.70;99.90;;;;;;4999477;28;19985;-66
2022/12/23 08:37:10;;;;;;;;;;;10.70;99.90;;;;;;5010960;28;20015;-65
2022/12/23 08:39:36;;;;;;;;;;;10.70;99.90;;;;;;5010779;28;19914;-65
2022/12/23 08:42:01;;;;;;;;;;;10.80;99.90;;;;;;5011553;28;19913;-66
2022/12/23 08:44:27;;;;;;;;;;;10.70;99.90;;;;;;5000946;28;19920;-65
2022/12/23 08:46:53;;;;;;;;;;;10.70;99.90;;;;;;5007667;28;19922;-67
2022/12/23 08:49:19;;;;;;;;;;;10.90;99.90;;;;;;5010320;28;20263;-65
2022/12/23 08:51:45;;;;;;;;;;;11.10;99.90;;;;;;5008473;28;19960;-65
2022/12/23 08:54:11;;;;;;;;;;;11.20;99.90;;;;;;5011342;28;19914;-65
2022/12/23 08:56:38;;;;;;;;;;;11.30;99.90;;;;;;5013523;28;20118;-66
2022/12/23 08:59:04;;;;;;;;;;;11.20;99.90;;;;;;5011507;28;19917;-66
2022/12/23 09:01:31;;;;;;;;;;;11.20;99.90;;;;;;5005710;28;19929;-66
2022/12/23 09:03:56;;;;;;;;;;;11.30;99.90;;;;;;5005211;28;19960;-66
2022/12/23 09:06:23;;;;;;;;;;;11.40;99.90;;;;;;5009711;28;20320;-66
2022/12/23 09:08:49;;;;;;;;;;;11.20;99.90;;;;;;5014672;28;19913;-65
2022/12/23 09:11:17;;;;;;;;;;;11.30;99.90;;;;;;5010499;28;20396;-65
2022/12/23 09:13:42;;;;;;;;;;;11.30;99.90;;;;;;5009399;28;20602;-66
2022/12/23 09:16:08;;;;;;;;;;;11.30;99.90;;;;;;5009349;28;19940;-66
2022/12/23 09:18:34;;;;;;;;;;;11.30;99.90;;;;;;5009061;28;19929;-67
2022/12/23 09:21:01;;;;;;;;;;;11.30;99.90;;;;;;5007664;28;19913;-65
2022/12/23 09:23:26;;;;;;;;;;;11.40;99.90;;;;;;5012125;28;19913;-65
2022/12/23 09:25:52;;;;;;;;;;;11.30;99.90;;;;;;5010820;28;20428;-64
2022/12/23 09:28:18;;;;;;;;;;;11.40;99.90;;;;;;5011534;28;19917;-66
2022/12/23 09:30:44;;;;;;;;;;;11.40;99.90;;;;;;5018592;28;20436;-65
2022/12/23 09:33:09;;;;;;;;;;;11.30;99.90;;;;;;5010107;28;19945;-66
2022/12/23 09:35:35;;;;;;;;;;;11.40;99.90;;;;;;5010838;28;19910;-66
2022/12/23 09:38:01;;;;;;;;;;;11.40;99.90;;;;;;5015262;28;20384;-66
2022/12/23 09:40:28;;;;;;;;;;;11.40;99.90;;;;;;5008862;28;19921;-66
2022/12/23 09:42:57;;;;;;;;;;;11.30;99.90;;;;;;5009862;28;20455;-65
2022/12/23 09:45:22;;;;;;;;;;;11.30;99.90;;;;;;5010526;28;19964;-65
2022/12/23 09:47:48;;;;;;;;;;;11.30;99.90;;;;;;5010179;28;20309;-65
2022/12/23 09:50:28;;;;;;;;;;;11.20;99.90;;;;;;5008799;28;20271;-66
2022/12/23 09:53:04;;;;;;;;;;;11.40;99.90;;;;;;5010600;28;19979;-65
2022/12/23 09:55:43;;;;;;;;;;;11.40;99.90;;;;;;5008124;28;20020;-65
2022/12/23 09:58:18;;;;;;;;;;;11.40;99.90;;;;;;5005777;28;19920;-65
2022/12/23 10:00:50;;;;;;;;;;;11.40;99.90;;;;;;5001427;28;20381;-66
2022/12/23 10:03:21;;;;;;;;;;;11.40;99.90;;;;;;5009726;28;19909;-66
2022/12/23 10:05:55;;;;;;;;;;;11.30;99.90;;;;;;4996221;28;20553;-65
2022/12/23 10:08:26;;;;;;;;;;;11.30;99.90;;;;;;5010706;28;19917;-66
2022/12/23 10:10:57;;;;;;;;;;;11.40;99.90;;;;;;5008795;28;19917;-67
2022/12/23 10:13:28;;;;;;;;;;;11.30;99.90;;;;;;5012764;28;20356;-66
2022/12/23 10:15:56;;;;;;;;;;;11.30;99.90;;;;;;5011438;28;19913;-67
2022/12/23 10:18:22;;;;;;;;;;;11.50;99.90;;;;;;4999296;28;19914;-67
2022/12/23 10:20:51;;;;;;;;;;;11.40;99.90;;;;;;4995322;28;20000;-66
2022/12/23 10:23:22;;;;;;;;;;;11.50;99.90;;;;;;5013308;28;19921;-67
2022/12/23 10:25:50;;;;;;;;;;;11.60;99.90;;;;;;5013269;28;19913;-68
2022/12/23 10:28:16;;;;;;;;;;;11.60;99.90;;;;;;5013236;28;19923;-67
2022/12/23 10:30:44;;;;;;;;;;;11.60;99.90;;;;;;5010315;28;19914;-67
2022/12/23 10:33:18;;;;;;;;;;;11.60;99.90;;;;;;5009718;28;19913;-68
2022/12/23 10:36:09;;;;;;;;;;;11.60;99.90;;;;;;5015570;28;19920;-68
2022/12/23 10:38:47;;;;;;;;;;;11.50;99.90;;;;;;5006652;28;20321;-65
2022/12/23 10:41:22;;;;;;;;;;;11.50;99.90;;;;;;5011033;28;19913;-67
2022/12/23 10:44:02;;;;;;;;;;;11.50;99.90;;;;;;5013714;28;19992;-66
2022/12/23 10:46:31;;;;;;;;;;;11.40;99.90;;;;;;5010653;28;19909;-67
2022/12/23 10:49:02;;;;;;;;;;;11.20;99.90;;;;;;5019874;28;19913;-66
2022/12/23 10:51:33;;;;;;;;;;;11.00;99.90;;;;;;5014447;28;19920;-65
2022/12/23 10:54:04;;;;;;;;;;;10.80;99.90;;;;;;5008857;28;19910;-66
2022/12/23 10:56:30;;;;;;;;;;;10.80;99.90;;;;;;5010961;28;19928;-66
2022/12/23 10:58:57;;;;;;;;;;;10.60;99.90;;;;;;5013539;28;19909;-67
2022/12/23 11:01:23;;;;;;;;;;;10.70;99.90;;;;;;5012507;28;20330;-67
2022/12/23 11:03:58;;;;;;;;;;;10.60;99.90;;;;;;5013538;28;20095;-67
2022/12/23 11:06:24;;;;;;;;;;;10.70;99.90;;;;;;5010291;28;19922;-66
2022/12/23 11:08:51;;;;;;;;;;;10.80;99.90;;;;;;5012333;28;19910;-66
2022/12/23 11:11:16;;;;;;;;;;;10.70;99.90;;;;;;5011964;28;20009;-66
2022/12/23 11:13:43;;;;;;;;;;;10.60;99.90;;;;;;5012728;28;20008;-66
2022/12/23 11:16:18;;;;;;;;;;;10.60;99.90;;;;;;5010087;28;19913;-66
2022/12/23 11:18:52;;;;;;;;;;;10.70;99.90;;;;;;5010355;28;19925;-66
2022/12/23 11:21:18;;;;;;;;;;;10.70;99.90;;;;;;5012055;28;19909;-65
2022/12/23 11:23:43;;;;;;;;;;;10.70;99.90;;;;;;5014324;28;20008;-67
2022/12/23 11:26:16;;;;;;;;;;;10.70;99.90;;;;;;4997578;28;19928;-67
2022/12/23 11:28:55;;;;;;;;;;;10.80;99.90;;;;;;5013348;28;19984;-67
2022/12/23 11:31:31;;;;;;;;;;;10.60;99.90;;;;;;5011571;28;19910;-67
2022/12/23 11:33:58;;;;;;;;;;;10.60;99.90;;;;;;5009390;28;19913;-65
2022/12/23 11:36:26;;;;;;;;;;;10.60;99.90;;;;;;5009420;28;19918;-64
2022/12/23 11:38:52;;;;;;;;;;;10.50;99.90;;;;;;5008558;28;19914;-66
2022/12/23 11:41:21;;;;;;;;;;;10.40;99.90;;;;;;5019254;28;19913;-66
2022/12/23 11:43:52;;;;;;;;;;;10.30;99.90;;;;;;5012804;28;19913;-67
2022/12/23 11:46:26;;;;;;;;;;;10.30;99.90;;;;;;5013623;28;19920;-66
2022/12/23 11:49:06;;;;;;;;;;;10.30;99.90;;;;;;5014470;28;19928;-65
2022/12/23 11:51:32;;;;;;;;;;;10.20;99.90;;;;;;5018664;28;19913;-64
2022/12/23 11:53:59;;;;;;;;;;;10.30;99.90;;;;;;5008108;28;19919;-64
2022/12/23 11:56:25;;;;;;;;;;;10.40;99.90;;;;;;5011311;28;20014;-65
2022/12/23 11:59:02;;;;;;;;;;;10.30;99.90;;;;;;5007342;28;20381;-64
2022/12/23 12:01:28;;;;;;;;;;;10.30;99.90;;;;;;4992608;28;20293;-66
2022/12/23 12:03:59;;;;;;;;;;;10.40;99.90;;;;;;5004864;28;19917;-66
2022/12/23 12:06:25;;;;;;;;;;;10.40;99.90;;;;;;5010762;28;20255;-66
2022/12/23 12:08:52;;;;;;;;;;;10.50;99.90;;;;;;5012304;28;19918;-66
2022/12/23 12:11:19;;;;;;;;;;;10.60;99.90;;;;;;5010739;28;19909;-65
2022/12/23 12:13:49;;;;;;;;;;;10.50;99.90;;;;;;5000362;28;20008;-66
2022/12/23 12:16:36;;;;;;;;;;;10.50;99.90;;;;;;5008740;28;19917;-66
2022/12/23 12:19:04;;;;;;;;;;;10.50;99.90;;;;;;5006461;28;19917;-66
2022/12/23 12:21:32;;;;;;;;;;;10.40;99.90;;;;;;5006210;28;20449;-65
2022/12/23 12:24:03;;;;;;;;;;;10.40;99.90;;;;;;5002208;28;20014;-66
2022/12/23 12:26:30;;;;;;;;;;;10.40;99.90;;;;;;4995600;28;20020;-66
2022/12/23 12:28:59;;;;;;;;;;;10.30;99.90;;;;;;5018973;28;20572;-66
2022/12/23 12:31:37;;;;;;;;;;;10.30;99.90;;;;;;5006915;28;19917;-66
2022/12/23 12:34:08;;;;;;;;;;;10.30;99.90;;;;;;5013710;28;20000;-66
2022/12/23 12:36:40;;;;;;;;;;;10.30;99.90;;;;;;5009060;28;19914;-66
2022/12/23 12:39:10;;;;;;;;;;;10.40;99.90;;;;;;5012313;28;20001;-65
2022/12/23 12:41:41;;;;;;;;;;;10.30;99.90;;;;;;5011998;28;20339;-65
2022/12/23 12:44:25;;;;;;;;;;;10.30;99.90;;;;;;5011948;28;20368;-67
2022/12/23 12:46:57;;;;;;;;;;;10.30;99.90;;;;;;5005057;28;19917;-65
2022/12/23 12:49:29;;;;;;;;;;;10.30;99.90;;;;;;5005252;28;20274;-64
2022/12/23 12:51:55;;;;;;;;;;;10.40;99.90;;;;;;5007459;28;19941;-65
2022/12/23 12:54:26;;;;;;;;;;;10.40;99.90;;;;;;5023121;28;19917;-63
2022/12/23 12:56:53;;;;;;;;;;;10.40;99.90;;;;;;5011941;28;19960;-65
2022/12/23 12:59:20;;;;;;;;;;;10.40;99.90;;;;;;5007730;28;19919;-66
2022/12/23 13:02:04;;;;;;;;;;;10.40;99.90;;;;;;5005367;28;19914;-67
2022/12/23 13:04:30;;;;;;;;;;;10.30;99.90;;;;;;5011862;28;19944;-64
2022/12/23 13:06:55;;;;;;;;;;;10.40;99.90;;;;;;5008985;28;19917;-66
2022/12/23 13:09:33;;;;;;;;;;;10.40;99.90;;;;;;5008489;28;20401;-66
2022/12/23 13:12:02;;;;;;;;;;;10.40;99.90;;;;;;5009500;28;19913;-68
2022/12/23 13:14:28;;;;;;;;;;;10.30;99.90;;;;;;5016749;28;19922;-65
2022/12/23 13:17:11;;;;;;;;;;;10.30;99.90;;;;;;5013580;28;20274;-66
2022/12/23 13:19:36;;;;;;;;;;;10.40;99.90;;;;;;5000515;28;20342;-65
2022/12/23 13:22:14;;;;;;;;;;;10.40;99.90;;;;;;5009299;28;19913;-65
2022/12/23 13:24:39;;;;;;;;;;;10.40;99.90;;;;;;5002866;28;19967;-67
2022/12/23 13:27:40;;;;;;;;;;;10.40;99.90;;;;;;5011223;28;20385;-66
2022/12/23 13:30:05;;;;;;;;;;;10.40;99.90;;;;;;4946930;29;19914;-65
2022/12/23 13:32:54;;;;;;;;;;;10.40;99.90;;;;;;4991007;28;21679;-66
2022/12/23 13:35:33;;;;;;;;;;;10.40;99.90;;;;;;4995471;28;20012;-65
2022/12/23 13:37:58;;;;;;;;;;;10.40;99.90;;;;;;5007114;28;20532;-67
2022/12/23 13:40:27;;;;;;;;;;;10.40;99.90;;;;;;5010764;28;19924;-65
2022/12/23 13:42:58;;;;;;;;;;;10.50;99.90;;;;;;5008610;28;19920;-66
2022/12/23 13:45:26;;;;;;;;;;;10.50;99.90;;;;;;5015450;28;19964;-66
2022/12/23 13:48:11;;;;;;;;;;;10.50;99.90;;;;;;5007384;28;19917;-66
2022/12/23 13:50:44;;;;;;;;;;;10.50;99.90;;;;;;5004744;28;20411;-65
2022/12/23 13:53:10;;;;;;;;;;;10.50;99.90;;;;;;5009401;28;19913;-63
2022/12/23 13:55:59;;;;;;;;;;;10.50;99.90;;;;;;5017028;28;19909;-65
2022/12/23 13:58:27;;;;;;;;;;;10.50;99.90;;;;;;4996262;28;19913;-66
2022/12/23 14:00:57;;;;;;;;;;;10.50;99.90;;;;;;5002722;28;20012;-66
2022/12/23 14:03:23;;;;;;;;;;;10.40;99.90;;;;;;5008231;28;19914;-66
2022/12/23 14:05:50;;;;;;;;;;;10.50;99.90;;;;;;5010463;28;19951;-65
2022/12/23 14:08:18;;;;;;;;;;;10.50;99.90;;;;;;5006003;28;19927;-65
2022/12/23 14:10:53;;;;;;;;;;;10.40;99.90;;;;;;4987233;28;20377;-65
2022/12/23 14:13:22;;;;;;;;;;;10.40;99.90;;;;;;5022176;28;19921;-65
2022/12/23 14:15:53;;;;;;;;;;;10.30;99.90;;;;;;5010370;28;19968;-66
2022/12/23 14:18:26;;;;;;;;;;;10.30;99.90;;;;;;5008236;28;19921;-66
2022/12/23 14:21:11;;;;;;;;;;;10.30;99.90;;;;;;5022498;28;19917;-67
2022/12/23 14:24:01;;;;;;;;;;;10.30;99.90;;;;;;5014050;28;19913;-67
2022/12/23 14:26:36;;;;;;;;;;;10.30;99.90;;;;;;5007841;28;19921;-65
2022/12/23 14:29:07;;;;;;;;;;;10.30;99.90;;;;;;5008355;28;19996;-63
2022/12/23 14:31:33;;;;;;;;;;;10.30;99.90;;;;;;5005383;28;19909;-67
2022/12/23 14:34:22;;;;;;;;;;;10.30;99.90;;;;;;5012968;28;19920;-65
2022/12/23 14:37:06;;;;;;;;;;;10.30;99.90;;;;;;5012044;28;19917;-66
2022/12/23 14:39:32;;;;;;;;;;;10.30;99.90;;;;;;5002293;28;19909;-65
2022/12/23 14:41:58;;;;;;;;;;;10.30;99.90;;;;;;5002508;28;19909;-65
2022/12/23 14:44:36;;;;;;;;;;;10.30;99.90;;;;;;5006240;28;20431;-67
2022/12/23 14:47:02;;;;;;;;;;;10.40;99.90;;;;;;5013706;28;19917;-66
2022/12/23 14:49:41;;;;;;;;;;;10.40;99.90;;;;;;5007419;28;20032;-68
2022/12/23 14:52:25;;;;;;;;;;;10.40;99.90;;;;;;5009457;28;19945;-65
2022/12/23 14:54:51;;;;;;;;;;;10.40;99.90;;;;;;5010950;28;19977;-65
2022/12/23 14:57:20;;;;;;;;;;;10.40;99.90;;;;;;5012435;28;20316;-66